Data for 03/03/2018

Time Sea-Level Adjusted Pressure Absolute Pressure Temperature Relative Humidity Dew Point   
(mb) (inHg) (mb) (inHg) (C) (F) (%) (C) (F)
00:05 1012 29.88 841 24.83 -1.5 29.4 49 -10.9 12.4
00:10 1012 29.88 841 24.83 -1.5 29.2 49 -11 12.3
00:15 1012 29.88 841 24.83 -1.6 29.1 49 -10.9 12.3
00:20 1012 29.88 841 24.83 -1.6 29.1 51 -10.5 13
00:25 1012 29.88 842 24.86 -1.7 29 51 -10.5 13.1
00:30 1013 29.91 842 24.86 -1.7 29 52 -10.3 13.4
00:35 1013 29.91 842 24.86 -1.7 29 52 -10.3 13.4
00:40 1013 29.91 842 24.86 -1.7 29 52 -10.4 13.4
00:45 1013 29.91 842 24.86 -1.7 29 53 -10.1 13.8
00:50 1013 29.91 842 24.86 -1.8 28.8 53 -10.1 13.8
00:55 1013 29.91 842 24.86 -2 28.5 54 -10 14.1
01:00 1013 29.91 842 24.86 -2 28.3 55 -9.9 14.1
01:05 1013 29.91 842 24.86 -2.1 28.3 55 -9.9 14.2
01:10 1013 29.91 842 24.86 -2.1 28.3 55 -9.9 14.2
01:15 1013 29.91 842 24.86 -2.2 28.1 55 -9.9 14.1
01:20 1013 29.91 842 24.86 -2.2 28.1 56 -9.9 14.2
01:25 1013 29.91 842 24.86 -2.2 28.1 55 -10.1 13.9
01:30 1013 29.91 842 24.86 -2.2 28.1 55 -10.1 13.9
01:35 1013 29.91 842 24.86 -2.2 28 54 -10.2 13.6
01:40 1013 29.91 842 24.86 -2.2 28 55 -10.2 13.7
01:45 1013 29.91 842 24.86 -2.2 28 53 -10.4 13.2
01:50 1013 29.91 842 24.86 -2.2 28.1 54 -10.4 13.3
01:55 1013 29.91 842 24.86 -2.3 27.9 54 -10.3 13.5
02:00 1013 29.91 842 24.86 -2.3 27.8 54 -10.3 13.4
02:05 1013 29.91 842 24.86 -2.4 27.6 55 -10.3 13.4
02:10 1013 29.91 842 24.86 -2.6 27.3 57 -10 14
02:15 1013 29.91 842 24.86 -2.8 26.9 55 -10.7 12.8
02:20 1013 29.91 842 24.86 -2.9 26.8 56 -10.5 13
02:25 1013 29.91 842 24.86 -2.9 26.8 54 -10.9 12.4
02:30 1013 29.91 842 24.86 -2.8 26.9 54 -10.8 12.6
02:35 1013 29.91 842 24.86 -2.9 26.8 54 -11 12.2
02:40 1012 29.88 842 24.86 -3 26.6 53 -11.3 11.7
02:45 1012 29.88 842 24.86 -2.9 26.7 53 -11.1 12
02:50 1012 29.88 842 24.86 -3 26.7 53 -11.4 11.6
02:55 1012 29.88 842 24.86 -2.9 26.7 52 -11.5 11.4
03:00 1013 29.91 842 24.86 -3 26.7 53 -11.3 11.7
03:05 1012 29.88 842 24.86 -3 26.6 52 -11.4 11.4
03:10 1012 29.88 842 24.86 -3 26.7 52 -11.6 11.2
03:15 1012 29.88 842 24.86 -2.9 26.8 50 -11.9 10.5
03:20 1012 29.88 842 24.86 -2.8 26.9 51 -11.7 11
03:25 1012 29.88 842 24.86 -2.8 27 50 -11.9 10.5
03:30 1012 29.88 842 24.86 -2.7 27.1 50 -11.8 10.7
03:35 1012 29.88 842 24.86 -2.8 27 50 -11.8 10.8
03:40 1012 29.88 842 24.86 -2.8 26.9 51 -11.7 10.9
03:45 1012 29.88 842 24.86 -3 26.7 50 -11.9 10.5
03:50 1012 29.88 841 24.83 -3 26.6 51 -11.7 11
03:55 1012 29.88 841 24.83 -3.1 26.4 51 -11.9 10.6
04:00 1012 29.88 841 24.83 -3.1 26.5 50 -12 10.4
04:05 1012 29.88 842 24.86 -3 26.6 53 -11.3 11.6
04:10 1012 29.88 842 24.86 -3.1 26.5 56 -10.7 12.8
04:15 1013 29.91 842 24.86 -3.3 26.1 57 -10.6 12.9
04:20 1013 29.91 842 24.86 -3.4 25.8 57 -10.7 12.8
04:25 1013 29.91 842 24.86 -3.4 25.9 54 -11.5 11.3
04:30 1013 29.91 842 24.86 -3.3 26.1 53 -11.5 11.3
04:35 1013 29.91 842 24.86 -3.2 26.3 52 -11.6 11
04:40 1013 29.91 842 24.86 -3.2 26.2 54 -11.3 11.6
04:45 1013 29.91 842 24.86 -3.6 25.6 57 -10.9 12.4
04:50 1013 29.91 842 24.86 -3.8 25.1 59 -10.7 12.7
04:55 1013 29.91 842 24.86 -3.9 24.9 61 -10.3 13.4
05:00 1013 29.91 842 24.86 -3.9 25 61 -10.4 13.3
05:05 1013 29.91 842 24.86 -3.8 25.2 60 -10.4 13.2
05:10 1013 29.91 842 24.86 -3.7 25.4 59 -10.5 13.1
05:15 1013 29.91 842 24.86 -3.6 25.5 59 -10.5 13.1
05:20 1013 29.91 842 24.86 -3.6 25.4 60 -10.4 13.2
05:25 1013 29.91 842 24.86 -3.7 25.3 61 -10.2 13.6
05:30 1013 29.91 842 24.86 -3.8 25.1 62 -10.2 13.7
05:35 1013 29.91 842 24.86 -3.9 25 62 -10.1 13.9
05:40 1013 29.91 842 24.86 -4 24.8 63 -10 13.9
05:45 1013 29.91 842 24.86 -4.1 24.6 64 -10 14
05:50 1013 29.91 842 24.86 -4.2 24.5 64 -9.9 14.1
05:55 1013 29.91 842 24.86 -4.3 24.2 65 -10 13.9
06:00 1013 29.91 842 24.86 -4.4 24 66 -9.9 14.1
06:05 1013 29.91 842 24.86 -4.5 23.9 66 -9.9 14.1
06:10 1013 29.91 842 24.86 -4.6 23.6 66 -10 14
06:15 1013 29.91 842 24.86 -4.6 23.8 65 -10.2 13.7
06:20 1013 29.91 842 24.86 -4.5 24 65 -10.1 13.9
06:25 1013 29.91 842 24.86 -4.5 23.9 66 -9.9 14.1
06:30 1013 29.91 843 24.89 -4.5 24 65 -10 13.9
06:35 1013 29.91 843 24.89 -4.4 24.1 59 -11.3 11.7
06:40 1013 29.91 843 24.89 -4.4 24.1 57 -11.6 11.1
06:45 1013 29.91 843 24.89 -4.5 23.9 58 -11.5 11.3
06:50 1013 29.91 843 24.89 -4.6 23.7 58 -11.7 10.9
06:55 1013 29.91 843 24.89 -4.9 23.2 59 -11.7 10.9
07:00 1013 29.91 843 24.89 -5 23 59 -11.8 10.7
07:05 1013 29.91 843 24.89 -5 23 59 -11.7 10.9
07:10 1013 29.91 843 24.89 -4.8 23.3 59 -11.7 11
07:15 1013 29.91 843 24.89 -4.4 24 57 -11.7 11
07:20 1013 29.91 843 24.89 -4.4 24 58 -11.5 11.2
07:25 1013 29.91 843 24.89 -4.4 24.1 57 -11.6 11.1
07:30 1013 29.91 843 24.89 -4.3 24.2 56 -11.9 10.6
07:35 1013 29.91 843 24.89 -4.1 24.5 55 -11.9 10.6
07:40 1013 29.91 843 24.89 -4 24.7 54 -11.9 10.5
07:45 1013 29.91 843 24.89 -4 24.9 55 -11.6 11.1
07:50 1013 29.91 843 24.89 -3.8 25.1 56 -11.4 11.4
07:55 1014 29.94 843 24.89 -3.7 25.4 55 -11.4 11.5
08:00 1014 29.94 843 24.89 -3.4 25.8 58 -10.6 12.9
08:05 1014 29.94 843 24.89 -3.3 26.1 56 -10.9 12.4
08:10 1014 29.94 843 24.89 -3.2 26.3 53 -11.5 11.3
08:15 1014 29.94 843 24.89 -2.8 27 52 -11.4 11.5
08:20 1014 29.94 843 24.89 -2.4 27.6 52 -11.1 12
08:25 1014 29.94 843 24.89 -2.1 28.2 50 -11.3 11.7
08:30 1014 29.94 843 24.89 -2.1 28.3 49 -11.4 11.4
08:35 1014 29.94 843 24.89 -1.9 28.6 48 -11.6 11.2
08:40 1014 29.94 843 24.89 -1.9 28.6 48 -11.6 11.2
08:45 1014 29.94 843 24.89 -1.9 28.6 45 -12.4 9.7
08:50 1014 29.94 843 24.89 -1.8 28.7 46 -11.8 10.7
08:55 1014 29.94 843 24.89 -2.3 27.9 48 -11.9 10.5
09:00 1014 29.94 843 24.89 -2.3 27.9 47 -12.1 10.2
09:05 1014 29.94 843 24.89 -1.8 28.8 47 -11.7 10.9
09:10 1014 29.94 843 24.89 -1.5 29.4 47 -11.5 11.3
09:15 1014 29.94 843 24.89 -1.5 29.3 48 -11.1 12.1
09:20 1014 29.94 843 24.89 -1.8 28.7 50 -10.9 12.5
09:25 1014 29.94 843 24.89 -1.7 29 50 -10.7 12.7
09:30 1014 29.94 843 24.89 -2 28.4 51 -10.9 12.3
09:35 1014 29.94 843 24.89 -2.2 28 52 -10.9 12.5
09:40 1014 29.94 843 24.89 -2.1 28.2 52 -10.7 12.8
09:45 1014 29.94 843 24.89 -2 28.3 51 -11 12.3
09:50 1014 29.94 843 24.89 -1.7 28.9 50 -10.7 12.7
09:55 1014 29.94 843 24.89 -1.7 28.9 50 -10.9 12.4
10:00 1014 29.94 843 24.89 -1.2 29.9 49 -10.7 12.8
10:05 1014 29.94 843 24.89 -0.9 30.4 48 -10.7 12.8
10:10 1014 29.94 843 24.89 -0.9 30.4 49 -10.3 13.4
10:15 1014 29.94 843 24.89 -0.5 31 47 -10.4 13.3
10:20 1014 29.94 843 24.89 -0.7 30.8 51 -9.5 14.9
10:25 1014 29.94 843 24.89 -1.6 29.1 52 -10.1 13.7
10:30 1014 29.94 843 24.89 -1.4 29.5 52 -10 13.9
10:35 1014 29.94 843 24.89 -1.4 29.5 51 -10.4 13.3
10:40 1014 29.94 843 24.89 -1.3 29.6 48 -11.1 12
10:45 1014 29.94 843 24.89 -1.2 29.8 46 -11.4 11.4
10:50 1014 29.94 843 24.89 -1.1 30 45 -11.6 11.2
10:55 1014 29.94 843 24.89 -1.3 29.7 45 -11.8 10.8
11:00 1014 29.94 843 24.89 -1.1 30 45 -11.7 10.9
11:05 1014 29.94 843 24.89 -0.7 30.7 39 -13.2 8.3
11:10 1013 29.91 843 24.89 -1.2 29.9 40 -13 8.6
11:15 1013 29.91 843 24.89 -1.4 29.5 45 -11.9 10.5
11:20 1013 29.91 843 24.89 -1.3 29.7 42 -12.5 9.4
11:25 1013 29.91 843 24.89 -1 30.2 43 -12 10.5
11:30 1013 29.91 842 24.86 -1 30.3 43 -11.9 10.5
11:35 1013 29.91 842 24.86 -0.7 30.7 41 -12.4 9.7
11:40 1013 29.91 842 24.86 -0.6 30.9 42 -12 10.4
11:45 1013 29.91 842 24.86 -0.5 31 42 -12 10.4
11:50 1013 29.91 842 24.86 -1.3 29.6 46 -11.5 11.4
11:55 1013 29.91 842 24.86 -1.2 29.8 46 -11.4 11.5
12:00 1013 29.91 842 24.86 -0.4 31.2 43 -11.6 11.2
12:05 1013 29.91 842 24.86 -0.3 31.4 42 -11.8 10.7
12:10 1013 29.91 842 24.86 0.1 32.2 43 -11 12.1
12:15 1013 29.91 842 24.86 0.6 33 41 -11.4 11.5
12:20 1013 29.91 842 24.86 0.8 33.4 41 -11.2 11.9
12:25 1012 29.88 842 24.86 1.2 34.2 42 -10.4 13.3
12:30 1012 29.88 842 24.86 0.7 33.2 44 -10.4 13.4
12:35 1012 29.88 842 24.86 0.8 33.4 43 -10.5 13.2
12:40 1012 29.88 842 24.86 1.2 34.2 45 -9.6 14.8
12:45 1012 29.88 841 24.83 1.5 34.6 44 -9.6 14.7
12:50 1012 29.88 841 24.83 1 33.9 43 -10.2 13.7
12:55 1012 29.88 841 24.83 1.1 34 46 -9.3 15.2
13:00 1012 29.88 841 24.83 1 33.9 46 -9.3 15.2
13:05 1012 29.88 841 24.83 0.9 33.7 49 -8.7 16.3
13:10 1012 29.88 841 24.83 -0.3 31.4 47 -10.4 13.4
13:15 1012 29.88 841 24.83 0.5 32.9 42 -10.9 12.4
13:20 1012 29.88 841 24.83 0.8 33.5 43 -10.3 13.4
13:25 1012 29.88 841 24.83 1.4 34.5 45 -9.4 15
13:30 1012 29.88 841 24.83 0.9 33.6 45 -9.6 14.7
13:35 1012 29.88 841 24.83 0.6 33.1 46 -9.8 14.3
13:40 1012 29.88 842 24.86 0.5 32.8 43 -10.7 12.7
13:45 1012 29.88 842 24.86 0.6 33.1 40 -11.3 11.6
13:50 1012 29.88 842 24.86 0.5 32.9 43 -10.8 12.6
13:55 1012 29.88 841 24.83 0 32.1 50 -9.3 15.3
14:00 1012 29.88 841 24.83 -0.2 31.6 48 -9.8 14.3
14:05 1012 29.88 841 24.83 0.2 32.4 47 -9.8 14.4
14:10 1012 29.88 842 24.86 0.2 32.3 50 -9.1 15.6
14:15 1012 29.88 841 24.83 0.1 32.2 50 -9.1 15.6
14:20 1012 29.88 841 24.83 -0 32 48 -9.7 14.5
14:25 1012 29.88 841 24.83 0.1 32.2 49 -9.5 15
14:30 1012 29.88 841 24.83 0.2 32.3 47 -9.9 14.2
14:35 1012 29.88 842 24.86 -0.1 31.8 48 -9.8 14.4
14:40 1012 29.88 842 24.86 -0.1 31.8 49 -9.6 14.7
14:45 1012 29.88 842 24.86 -0.4 31.2 49 -9.8 14.4
14:50 1012 29.88 842 24.86 -0.4 31.2 50 -9.6 14.8
14:55 1013 29.91 842 24.86 -0.4 31.4 49 -9.9 14.2
15:00 1013 29.91 842 24.86 -0.3 31.4 50 -9.5 14.9
15:05 1013 29.91 842 24.86 -0.3 31.5 49 -9.8 14.4
15:10 1013 29.91 842 24.86 -0.3 31.5 47 -10.2 13.6
15:15 1013 29.91 842 24.86 -0.4 31.3 49 -9.8 14.4
15:20 1013 29.91 842 24.86 -0.5 31 48 -10.3 13.5
15:25 1013 29.91 842 24.86 -0.2 31.6 48 -9.8 14.3
15:30 1013 29.91 842 24.86 -0.6 30.9 49 -10.2 13.7
15:35 1013 29.91 842 24.86 -1 30.1 50 -10.2 13.7
15:40 1013 29.91 842 24.86 -1.1 30 49 -10.5 13.2
15:45 1013 29.91 842 24.86 -1.1 30 51 -10.1 13.8
15:50 1013 29.91 842 24.86 -0.9 30.4 49 -10.3 13.4
15:55 1013 29.91 842 24.86 -1 30.2 54 -9.3 15.3
16:00 1013 29.91 842 24.86 -0.9 30.5 53 -9.3 15.3
16:05 1013 29.91 842 24.86 -0.8 30.5 52 -9.5 14.9
16:10 1013 29.91 842 24.86 -0.7 30.7 56 -8.5 16.6
16:15 1013 29.91 842 24.86 -0.9 30.3 60 -7.7 18.1
16:20 1012 29.88 842 24.86 -1 30.2 60 -7.7 18.1
16:25 1012 29.88 842 24.86 -1.2 29.9 61 -7.7 18.1
16:30 1012 29.88 842 24.86 -1.3 29.7 62 -7.7 18.2
16:35 1012 29.88 842 24.86 -1.4 29.5 62 -7.7 18.1
16:40 1013 29.91 842 24.86 -1.5 29.3 63 -7.7 18.1
16:45 1013 29.91 842 24.86 -1.6 29.2 63 -7.6 18.3
16:50 1013 29.91 842 24.86 -1.6 29.1 64 -7.5 18.5
16:55 1013 29.91 842 24.86 -1.7 29 65 -7.5 18.5
17:00 1013 29.91 842 24.86 -1.7 28.9 65 -7.6 18.4
17:05 1013 29.91 842 24.86 -1.8 28.8 65 -7.4 18.6
17:10 1013 29.91 842 24.86 -1.8 28.7 66 -7.3 18.9
17:15 1013 29.91 842 24.86 -1.9 28.6 67 -7.1 19.2
17:20 1013 29.91 842 24.86 -2 28.5 68 -7.1 19.1
17:25 1013 29.91 842 24.86 -2 28.4 68 -7.1 19.1
17:30 1013 29.91 842 24.86 -2.1 28.3 68 -7.2 19.1
17:35 1013 29.91 842 24.86 -2.1 28.2 67 -7.4 18.7
17:40 1013 29.91 842 24.86 -2.1 28.2 67 -7.5 18.5
17:45 1013 29.91 842 24.86 -2.1 28.2 65 -7.8 18
17:50 1013 29.91 842 24.86 -2.2 28.1 66 -7.8 18
17:55 1013 29.91 842 24.86 -2.2 28.1 65 -7.9 17.7
18:00 1013 29.91 842 24.86 -2.2 28.1 64 -8 17.5
18:05 1013 29.91 842 24.86 -2.2 28 64 -8.1 17.5
18:10 1013 29.91 842 24.86 -2.3 27.9 64 -8.1 17.4
18:15 1013 29.91 842 24.86 -2.3 27.9 64 -8.2 17.2
18:20 1013 29.91 842 24.86 -2.3 27.9 63 -8.3 17
18:25 1013 29.91 842 24.86 -2.3 27.8 64 -8.3 17.1
18:30 1013 29.91 842 24.86 -2.4 27.7 64 -8.2 17.2
18:35 1013 29.91 842 24.86 -2.4 27.6 65 -8.2 17.3
18:40 1013 29.91 842 24.86 -2.5 27.5 66 -8 17.5
18:45 1013 29.91 842 24.86 -2.5 27.5 66 -8 17.5
18:50 1013 29.91 842 24.86 -2.6 27.4 66 -8 17.6
18:55 1013 29.91 842 24.86 -2.6 27.3 66 -8.1 17.4
19:00 1013 29.91 842 24.86 -2.6 27.3 67 -8 17.6
19:05 1013 29.91 842 24.86 -2.6 27.4 66 -8 17.6
19:10 1013 29.91 842 24.86 -2.6 27.4 67 -7.9 17.8
19:15 1013 29.91 842 24.86 -2.6 27.3 67 -7.8 17.9
19:20 1013 29.91 842 24.86 -2.6 27.3 68 -7.8 18
19:25 1013 29.91 842 24.86 -2.7 27.2 69 -7.7 18.2
19:30 1013 29.91 842 24.86 -2.7 27.1 69 -7.6 18.3
19:35 1013 29.91 842 24.86 -2.7 27.1 68 -7.7 18.1
19:40 1013 29.91 842 24.86 -2.7 27.2 69 -7.6 18.4
19:45 1013 29.91 842 24.86 -2.7 27.2 70 -7.4 18.8
19:50 1013 29.91 842 24.86 -2.7 27.1 70 -7.4 18.7
19:55 1013 29.91 842 24.86 -2.7 27.1 71 -7.2 19
20:00 1013 29.91 842 24.86 -2.7 27.1 72 -7.1 19.2
20:05 1013 29.91 842 24.86 -2.7 27.1 72 -7.1 19.3
20:10 1013 29.91 842 24.86 -2.7 27.1 72 -7 19.4
20:15 1013 29.91 842 24.86 -2.7 27.1 72 -7.1 19.3
20:20 1013 29.91 842 24.86 -2.7 27.1 73 -7 19.5
20:25 1013 29.91 842 24.86 -2.8 27 74 -6.8 19.7
20:30 1013 29.91 842 24.86 -2.8 27 75 -6.6 20.2
20:35 1013 29.91 842 24.86 -2.9 26.8 77 -6.4 20.5
20:40 1013 29.91 842 24.86 -2.9 26.7 77 -6.4 20.6
20:45 1013 29.91 842 24.86 -3 26.6 78 -6.3 20.6
20:50 1013 29.91 842 24.86 -3 26.6 77 -6.4 20.4
20:55 1013 29.91 842 24.86 -3 26.7 78 -6.4 20.6
21:00 1013 29.91 842 24.86 -3.1 26.5 80 -6.1 21
21:05 1013 29.91 842 24.86 -3.2 26.3 80 -6.1 21
21:10 1013 29.91 842 24.86 -3.3 26.1 81 -6 21.2
21:15 1013 29.91 842 24.86 -3.4 25.9 82 -6 21.2
21:20 1012 29.88 842 24.86 -3.4 25.9 83 -5.9 21.3
21:25 1012 29.88 842 24.86 -3.5 25.8 83 -6 21.2
21:30 1013 29.91 842 24.86 -3.5 25.8 82 -6.1 21.1
21:35 1013 29.91 842 24.86 -3.5 25.8 81 -6.3 20.7
21:40 1013 29.91 842 24.86 -3.4 25.8 79 -6.6 20.2
21:45 1013 29.91 842 24.86 -3.4 25.8 79 -6.6 20
21:50 1012 29.88 842 24.86 -3.5 25.8 78 -6.7 19.9
21:55 1012 29.88 842 24.86 -3.5 25.6 78 -6.8 19.8
22:00 1012 29.88 842 24.86 -3.6 25.5 78 -6.9 19.7
22:05 1012 29.88 841 24.83 -3.6 25.5 79 -6.8 19.8
22:10 1012 29.88 841 24.83 -3.7 25.4 79 -6.8 19.7
22:15 1012 29.88 841 24.83 -3.7 25.4 79 -6.8 19.8
22:20 1012 29.88 841 24.83 -3.7 25.4 79 -6.8 19.8
22:25 1012 29.88 841 24.83 -3.7 25.3 79 -6.8 19.7
22:30 1012 29.88 841 24.83 -3.7 25.3 80 -6.8 19.8
22:35 1012 29.88 841 24.83 -3.8 25.2 80 -6.8 19.8
22:40 1012 29.88 841 24.83 -3.8 25.2 79 -6.9 19.6
22:45 1012 29.88 841 24.83 -3.8 25.2 80 -6.8 19.7
22:50 1012 29.88 841 24.83 -3.8 25.1 80 -6.8 19.7
22:55 1012 29.88 841 24.83 -3.9 25.1 80 -6.8 19.7
23:00 1012 29.88 841 24.83 -3.9 25 80 -6.8 19.8
23:05 1012 29.88 841 24.83 -3.9 25 80 -6.8 19.8
23:10 1012 29.88 841 24.83 -3.8 25.1 80 -6.8 19.8
23:15 1012 29.88 841 24.83 -3.9 25.1 80 -6.8 19.8
23:20 1012 29.88 841 24.83 -3.9 25 81 -6.7 19.9
23:25 1012 29.88 841 24.83 -3.9 24.9 81 -6.7 19.9
23:30 1012 29.88 841 24.83 -3.9 24.9 81 -6.7 19.9
23:35 1012 29.88 841 24.83 -3.9 24.9 81 -6.7 20
23:40 1012 29.88 841 24.83 -4 24.9 82 -6.7 20
23:45 1012 29.88 841 24.83 -4 24.8 82 -6.7 20
23:50 1012 29.88 841 24.83 -4 24.8 82 -6.6 20.1
23:55 1011 29.85 841 24.83 -4 24.8 82 -6.7 19.9
24:00 1011 29.85 841 24.83 -4 24.9 81 -6.8 19.8